Time;durP1;ratioP1;P1;durP2;ratioP2;P2;SDS_P1;SDS_P2;PMS_P1;PMS_P2;Temp;Humidity;BMP_temperature;BMP_pressure;BME280_temperature;BME280_humidity;BME280_pressure;Samples;Min_cycle;Max_cycle;Signal;HPM_P1;HPM_P2
2023/08/18 00:01:09;;;;;;;8.65;7.10;;;20.80;99.90;;;;;;4079998;29;20040;-64
2023/08/18 00:03:10;;;;;;;8.65;5.97;;;20.80;99.90;;;;;;4081819;29;20091;-66
2023/08/18 00:05:11;;;;;;;10.20;6.80;;;20.80;99.90;;;;;;4080612;29;20047;-66
2023/08/18 00:07:12;;;;;;;9.25;7.13;;;20.80;99.90;;;;;;4081356;29;20043;-63
2023/08/18 00:09:13;;;;;;;7.30;6.20;;;20.80;99.90;;;;;;4080299;29;20047;-65
2023/08/18 00:11:14;;;;;;;7.97;6.85;;;20.80;99.90;;;;;;4079604;29;20492;-67
2023/08/18 00:13:16;;;;;;;8.00;7.10;;;20.80;99.90;;;;;;4078499;29;20500;-61
2023/08/18 00:15:17;;;;;;;9.38;6.95;;;20.70;99.90;;;;;;4070000;29;20043;-66
2023/08/18 00:17:18;;;;;;;7.68;6.75;;;20.60;99.90;;;;;;4078833;29;20039;-66
2023/08/18 00:19:19;;;;;;;10.68;6.78;;;20.60;99.90;;;;;;4066043;29;20553;-64
2023/08/18 00:21:20;;;;;;;9.98;6.45;;;20.50;99.90;;;;;;4070866;29;20044;-65
2023/08/18 00:23:21;;;;;;;8.48;6.72;;;20.50;99.90;;;;;;4080475;29;20032;-66
2023/08/18 00:25:22;;;;;;;9.40;6.68;;;20.50;99.90;;;;;;4081429;29;20099;-66
2023/08/18 00:27:23;;;;;;;7.38;6.22;;;20.50;99.90;;;;;;4080263;29;20035;-66
2023/08/18 00:29:24;;;;;;;10.15;6.85;;;20.40;99.90;;;;;;4081007;29;20134;-65
2023/08/18 00:31:25;;;;;;;9.40;7.28;;;20.40;99.90;;;;;;4080308;29;20043;-66
2023/08/18 00:33:26;;;;;;;7.80;7.00;;;20.30;99.90;;;;;;4079723;29;20087;-65
2023/08/18 00:35:27;;;;;;;9.35;6.70;;;20.30;99.90;;;;;;4066075;29;20028;-65
2023/08/18 00:37:29;;;;;;;11.07;6.40;;;20.20;99.90;;;;;;4065709;29;20115;-67
2023/08/18 00:39:30;;;;;;;10.85;7.35;;;20.20;99.90;;;;;;4077465;29;20047;-63
2023/08/18 00:41:31;;;;;;;11.40;6.57;;;20.20;99.90;;;;;;4078701;29;20048;-66
2023/08/18 00:43:32;;;;;;;9.13;6.57;;;20.20;99.90;;;;;;4080314;29;20513;-64
2023/08/18 00:45:34;;;;;;;8.68;6.47;;;20.20;99.90;;;;;;4080344;29;20039;-64
2023/08/18 00:47:36;;;;;;;9.98;6.35;;;20.20;99.90;;;;;;4080531;29;20036;-64
2023/08/18 00:49:37;;;;;;;10.18;7.00;;;20.20;99.90;;;;;;4080074;29;20039;-66
2023/08/18 00:51:40;;;;;;;8.10;6.05;;;20.20;99.90;;;;;;4077648;29;20418;-62
2023/08/18 00:53:43;;;;;;;11.68;6.43;;;20.20;99.90;;;;;;4064063;29;20097;-63
2023/08/18 00:55:47;;;;;;;7.68;6.60;;;20.20;99.90;;;;;;4064407;29;20092;-63
2023/08/18 00:57:49;;;;;;;6.68;6.05;;;20.20;99.90;;;;;;4064071;29;20040;-65
2023/08/18 00:59:51;;;;;;;8.93;6.97;;;20.10;99.90;;;;;;4064969;29;20103;-66
2023/08/18 01:01:52;;;;;;;8.60;6.85;;;20.20;99.90;;;;;;4063566;29;20056;-63
2023/08/18 01:03:55;;;;;;;9.93;7.25;;;20.10;99.90;;;;;;4065188;29;20083;-65
2023/08/18 01:05:57;;;;;;;7.72;6.72;;;20.10;99.90;;;;;;4062859;29;20052;-66
2023/08/18 01:08:01;;;;;;;10.95;7.50;;;20.10;99.90;;;;;;4064790;29;20457;-66
2023/08/18 01:10:02;;;;;;;7.10;6.40;;;20.00;99.90;;;;;;4063997;29;20044;-65
2023/08/18 01:12:15;;;;;;;9.07;6.97;;;20.00;99.90;;;;;;4067357;29;20031;-65
2023/08/18 01:14:45;;;;;;;7.97;6.43;;;19.90;99.90;;;;;;4063841;29;20048;-65
2023/08/18 01:16:55;;;;;;;10.25;7.15;;;19.90;99.90;;;;;;4066522;29;20028;-65
2023/08/18 01:18:58;;;;;;;8.23;6.80;;;19.80;99.90;;;;;;4076278;29;20099;-65
2023/08/18 01:21:02;;;;;;;8.00;6.97;;;19.80;99.90;;;;;;4080796;29;20413;-64
2023/08/18 01:23:04;;;;;;;10.30;8.02;;;19.80;99.90;;;;;;4078826;29;20040;-63
2023/08/18 01:25:06;;;;;;;8.63;6.95;;;19.90;99.90;;;;;;4077809;29;20052;-65
2023/08/18 01:27:07;;;;;;;9.30;7.55;;;19.90;99.90;;;;;;4064064;29;20501;-64
2023/08/18 01:29:08;;;;;;;11.30;7.30;;;19.90;99.90;;;;;;4064651;29;20043;-62
2023/08/18 01:31:22;;;;;;;11.50;7.45;;;19.90;99.90;;;;;;4063978;29;20108;-66
2023/08/18 01:33:26;;;;;;;10.10;7.60;;;19.90;99.90;;;;;;4065903;29;20036;-65
2023/08/18 01:35:29;;;;;;;7.32;6.30;;;19.80;99.90;;;;;;4064226;29;20119;-65
2023/08/18 01:37:31;;;;;;;8.63;7.35;;;19.80;99.90;;;;;;4064597;29;20439;-66
2023/08/18 01:39:34;;;;;;;8.35;7.38;;;19.80;99.90;;;;;;4063889;29;20115;-66
2023/08/18 01:41:35;;;;;;;9.82;6.97;;;19.80;99.90;;;;;;4064194;29;20040;-66
2023/08/18 01:43:37;;;;;;;7.78;6.88;;;19.70;99.90;;;;;;4064218;29;20092;-64
2023/08/18 01:45:38;;;;;;;11.80;7.63;;;19.70;99.90;;;;;;4063944;29;20040;-65
2023/08/18 01:47:39;;;;;;;7.82;7.00;;;19.70;99.90;;;;;;4064443;29;20024;-62
2023/08/18 01:49:40;;;;;;;11.07;7.57;;;19.70;99.90;;;;;;4063557;29;20047;-64
2023/08/18 01:51:41;;;;;;;8.45;7.47;;;19.70;99.90;;;;;;4064725;29;20028;-65
2023/08/18 01:53:42;;;;;;;9.35;7.57;;;19.60;99.90;;;;;;4063626;29;20544;-63
2023/08/18 01:55:43;;;;;;;11.60;7.65;;;19.60;99.90;;;;;;4064547;29;20084;-64
2023/08/18 01:57:44;;;;;;;13.32;9.50;;;19.60;99.90;;;;;;4063422;29;20045;-63
2023/08/18 01:59:45;;;;;;;9.93;7.95;;;19.60;99.90;;;;;;4064382;29;20119;-63
2023/08/18 02:01:47;;;;;;;9.05;7.25;;;19.60;99.90;;;;;;4063398;29;20036;-62
2023/08/18 02:03:48;;;;;;;11.80;7.35;;;19.60;99.90;;;;;;4064919;29;20068;-61
2023/08/18 02:05:52;;;;;;;7.32;6.60;;;19.60;99.90;;;;;;4063895;29;20183;-62
2023/08/18 02:07:54;;;;;;;8.05;6.65;;;19.50;99.90;;;;;;4065589;29;20100;-62
2023/08/18 02:09:55;;;;;;;7.28;6.57;;;19.60;99.90;;;;;;4066855;29;20044;-62
2023/08/18 02:11:56;;;;;;;8.20;7.40;;;19.50;99.90;;;;;;4067378;29;20044;-62
2023/08/18 02:13:57;;;;;;;7.50;6.45;;;19.50;99.90;;;;;;4070393;29;20056;-62
2023/08/18 02:15:59;;;;;;;9.18;7.40;;;19.50;99.90;;;;;;4076398;29;20043;-60
2023/08/18 02:18:00;;;;;;;8.45;7.07;;;19.50;99.90;;;;;;4068118;29;20639;-62
2023/08/18 02:20:01;;;;;;;10.05;7.25;;;19.40;99.90;;;;;;4077512;29;20444;-62
2023/08/18 02:22:02;;;;;;;8.45;7.47;;;19.40;99.90;;;;;;4082467;29;20096;-62
2023/08/18 02:24:04;;;;;;;10.98;7.32;;;19.30;99.90;;;;;;4082214;29;20040;-63
2023/08/18 02:26:05;;;;;;;8.75;7.40;;;19.30;99.90;;;;;;4082807;29;20040;-62
2023/08/18 02:28:07;;;;;;;8.18;6.65;;;19.30;99.90;;;;;;4081807;29;20110;-62
2023/08/18 02:30:08;;;;;;;8.57;7.22;;;19.30;99.90;;;;;;4081862;29;20181;-63
2023/08/18 02:32:09;;;;;;;7.38;6.00;;;19.30;99.90;;;;;;4081521;29;20039;-65
2023/08/18 02:34:10;;;;;;;8.52;7.07;;;19.30;99.90;;;;;;4081087;29;20492;-65
2023/08/18 02:36:12;;;;;;;8.27;6.70;;;19.30;99.90;;;;;;4081938;29;20040;-66
2023/08/18 02:38:15;;;;;;;8.32;6.93;;;19.30;99.90;;;;;;4082869;29;20048;-65
2023/08/18 02:40:16;;;;;;;8.35;7.15;;;19.30;99.90;;;;;;4081609;29;20028;-66
2023/08/18 02:42:17;;;;;;;8.23;7.40;;;19.30;99.90;;;;;;4082905;29;20425;-65
2023/08/18 02:44:20;;;;;;;7.50;6.70;;;19.30;99.90;;;;;;4067466;29;20017;-62
2023/08/18 02:46:21;;;;;;;8.60;7.00;;;19.30;99.90;;;;;;4066572;29;20096;-63
2023/08/18 02:48:27;;;;;;;9.73;8.75;;;19.30;99.90;;;;;;4066679;29;20072;-64
2023/08/18 02:50:28;;;;;;;10.02;7.57;;;19.30;99.90;;;;;;4081417;29;20064;-64
2023/08/18 02:52:29;;;;;;;7.55;6.82;;;19.20;99.90;;;;;;4081973;29;20122;-64
2023/08/18 02:54:30;;;;;;;9.15;7.30;;;19.20;99.90;;;;;;4075582;29;20115;-61
2023/08/18 02:56:32;;;;;;;8.85;7.57;;;19.20;99.90;;;;;;4066926;29;20083;-62
2023/08/18 02:58:36;;;;;;;10.00;7.90;;;19.20;99.90;;;;;;4065659;29;20074;-65
2023/08/18 03:00:38;;;;;;;10.55;8.10;;;19.20;99.90;;;;;;4066825;29;20107;-65
2023/08/18 03:02:39;;;;;;;11.18;7.95;;;19.20;99.90;;;;;;4065820;29;20028;-65
2023/08/18 03:04:40;;;;;;;11.90;7.80;;;19.20;99.90;;;;;;4067145;29;20036;-64
2023/08/18 03:06:42;;;;;;;9.18;7.18;;;19.20;99.90;;;;;;4067347;29;20036;-65
2023/08/18 03:08:43;;;;;;;8.55;7.65;;;19.10;99.90;;;;;;4066890;29;20024;-61
2023/08/18 03:10:44;;;;;;;9.80;7.85;;;19.10;99.90;;;;;;4071644;29;20044;-64
2023/08/18 03:12:45;;;;;;;9.63;7.15;;;19.10;99.90;;;;;;4066834;29;20095;-65
2023/08/18 03:14:46;;;;;;;9.57;7.35;;;19.10;99.90;;;;;;4065575;29;20092;-64
2023/08/18 03:16:47;;;;;;;8.63;7.78;;;19.00;99.90;;;;;;4066470;29;20544;-65
2023/08/18 03:18:49;;;;;;;9.18;7.97;;;19.00;99.90;;;;;;4066694;29;20139;-64
2023/08/18 03:20:56;;;;;;;8.68;7.60;;;19.00;99.90;;;;;;4069046;29;20032;-66
2023/08/18 03:22:57;;;;;;;12.55;7.30;;;19.00;99.90;;;;;;4066031;29;20040;-65
2023/08/18 03:25:00;;;;;;;8.57;7.72;;;19.10;99.90;;;;;;4065976;29;20059;-65
2023/08/18 03:27:01;;;;;;;8.90;6.95;;;19.10;99.90;;;;;;4066982;29;20083;-64
2023/08/18 03:29:02;;;;;;;8.98;7.60;;;19.10;99.90;;;;;;4065447;29;20028;-64
2023/08/18 03:31:06;;;;;;;10.88;7.40;;;19.10;99.90;;;;;;4065889;29;20095;-64
2023/08/18 03:33:07;;;;;;;8.85;7.65;;;19.10;99.90;;;;;;4066260;29;20047;-63
2023/08/18 03:35:09;;;;;;;8.18;7.38;;;19.10;99.90;;;;;;4066459;29;20124;-65
2023/08/18 03:37:10;;;;;;;9.73;7.30;;;19.10;99.90;;;;;;4065502;29;20052;-66
2023/08/18 03:39:12;;;;;;;8.57;7.78;;;19.20;99.90;;;;;;4074404;29;20499;-65
2023/08/18 03:41:13;;;;;;;9.10;7.78;;;19.20;99.90;;;;;;4080450;29;20481;-65
2023/08/18 03:43:14;;;;;;;8.88;7.15;;;19.20;99.90;;;;;;4079712;29;20043;-65
2023/08/18 03:45:16;;;;;;;9.20;7.28;;;19.20;99.90;;;;;;4080713;29;20031;-64
2023/08/18 03:47:17;;;;;;;9.40;7.35;;;19.20;99.90;;;;;;4074863;29;20099;-64
2023/08/18 03:49:19;;;;;;;8.95;7.68;;;19.20;99.90;;;;;;4065106;29;20627;-65
2023/08/18 03:51:21;;;;;;;8.73;7.68;;;19.20;99.90;;;;;;4072056;29;20105;-65
2023/08/18 03:53:23;;;;;;;9.85;8.32;;;19.20;99.90;;;;;;4080949;29;20537;-65
2023/08/18 03:55:24;;;;;;;10.15;7.47;;;19.30;99.90;;;;;;4072566;29;20052;-66
2023/08/18 03:57:25;;;;;;;11.07;7.55;;;19.30;99.90;;;;;;4065591;29;20501;-65
2023/08/18 03:59:27;;;;;;;12.40;8.98;;;19.40;99.90;;;;;;4064816;29;20128;-65
2023/08/18 04:01:28;;;;;;;18.00;11.82;;;19.50;99.90;;;;;;4072805;29;20047;-63
2023/08/18 04:03:29;;;;;;;8.43;7.18;;;19.70;99.90;;;;;;4069960;29;20344;-62
2023/08/18 04:05:30;;;;;;;9.05;7.88;;;19.90;99.90;;;;;;4066110;29;20536;-65
2023/08/18 04:07:31;;;;;;;8.60;7.75;;;20.10;99.90;;;;;;4064992;29;20395;-63
2023/08/18 04:09:33;;;;;;;9.95;7.95;;;20.40;99.90;;;;;;4064386;29;20044;-66
2023/08/18 04:11:34;;;;;;;8.20;7.43;;;20.70;99.90;;;;;;4064759;29;20425;-65
2023/08/18 04:13:35;;;;;;;11.20;7.25;;;21.00;99.90;;;;;;4065684;29;20091;-62
2023/08/18 04:15:36;;;;;;;7.28;6.65;;;21.30;99.90;;;;;;4064810;29;20462;-63
2023/08/18 04:17:37;;;;;;;9.15;7.07;;;21.50;99.90;;;;;;4066014;29;20047;-64
2023/08/18 04:19:39;;;;;;;12.35;7.55;;;21.80;99.90;;;;;;4064597;29;20099;-64
2023/08/18 04:21:40;;;;;;;12.02;7.38;;;22.00;99.90;;;;;;4065865;29;20565;-66
2023/08/18 04:23:41;;;;;;;7.00;6.10;;;22.30;99.90;;;;;;4064896;29;20020;-66
2023/08/18 04:25:43;;;;;;;9.35;6.30;;;22.50;99.90;;;;;;4065700;29;20083;-63
2023/08/18 04:27:44;;;;;;;10.13;6.45;;;22.70;99.90;;;;;;4064925;29;20132;-66
2023/08/18 04:29:45;;;;;;;9.25;6.97;;;22.90;99.90;;;;;;4065202;29;20040;-62
2023/08/18 04:31:46;;;;;;;7.82;6.38;;;23.00;99.90;;;;;;4064884;29;20044;-65
2023/08/18 04:33:47;;;;;;;8.20;6.20;;;23.20;99.90;;;;;;4064114;29;20033;-62
2023/08/18 04:35:48;;;;;;;7.43;5.97;;;23.30;99.90;;;;;;4065768;29;20085;-65
2023/08/18 04:37:50;;;;;;;6.47;5.88;;;23.10;99.90;;;;;;4064580;29;20096;-64
2023/08/18 04:39:52;;;;;;;7.97;6.13;;;23.20;99.90;;;;;;4061146;29;20182;-61
2023/08/18 04:41:53;;;;;;;6.50;5.85;;;23.40;99.90;;;;;;4053555;29;20049;-62
2023/08/18 04:43:54;;;;;;;8.88;5.88;;;23.70;99.90;;;;;;4059628;29;20052;-65
2023/08/18 04:45:56;;;;;;;8.23;6.35;;;24.00;99.90;;;;;;4059032;29;20095;-61
2023/08/18 04:47:58;;;;;;;9.45;5.88;;;24.50;99.90;;;;;;4053096;29;20032;-60
2023/08/18 04:49:59;;;;;;;9.85;6.07;;;25.00;99.90;;;;;;4063588;29;20485;-62
2023/08/18 04:52:00;;;;;;;11.13;6.13;;;25.50;99.90;;;;;;4064698;29;20459;-63
2023/08/18 04:54:02;;;;;;;8.55;5.40;;;25.80;99.90;;;;;;4063322;29;20052;-64
2023/08/18 04:56:03;;;;;;;8.30;5.40;;;25.90;99.90;;;;;;4065217;29;20040;-64
2023/08/18 04:58:07;;;;;;;7.20;5.25;;;26.10;99.90;;;;;;4065386;29;20035;-63
2023/08/18 05:00:09;;;;;;;5.00;4.53;;;26.60;99.90;;;;;;4076118;29;20094;-62
2023/08/18 05:02:10;;;;;;;6.82;5.13;;;27.00;99.90;;;;;;4079343;29;20157;-62
2023/08/18 05:04:11;;;;;;;10.43;6.50;;;27.30;99.90;;;;;;4078515;29;20448;-64
2023/08/18 05:06:13;;;;;;;7.72;6.07;;;27.50;99.90;;;;;;4080749;29;20043;-63
2023/08/18 05:08:14;;;;;;;6.15;5.45;;;27.90;99.90;;;;;;4077773;29;20016;-63
2023/08/18 05:10:15;;;;;;;6.20;5.63;;;28.00;99.90;;;;;;4080378;29;20091;-63
2023/08/18 05:12:16;;;;;;;5.30;4.88;;;27.80;99.90;;;;;;4079670;29;20539;-61
2023/08/18 05:14:17;;;;;;;7.45;4.47;;;28.20;99.90;;;;;;4079683;29;20452;-63
2023/08/18 05:16:18;;;;;;;5.47;4.90;;;28.40;99.90;;;;;;4079187;29;20098;-62
2023/08/18 05:18:21;;;;;;;8.20;4.60;;;28.80;99.90;;;;;;4080518;29;20043;-67
2023/08/18 05:20:22;;;;;;;7.43;4.97;;;29.10;99.90;;;;;;4078625;29;20436;-64
2023/08/18 05:22:23;;;;;;;6.10;4.82;;;29.20;99.90;;;;;;4078139;29;20087;-62
2023/08/18 05:24:24;;;;;;;6.28;4.30;;;29.60;99.90;;;;;;4063352;29;20044;-64
2023/08/18 05:26:25;;;;;;;5.25;4.68;;;29.90;99.90;;;;;;4064857;29;20059;-64
2023/08/18 05:28:32;;;;;;;4.35;3.95;;;29.90;99.90;;;;;;4072821;29;20365;-66
2023/08/18 05:30:33;;;;;;;4.43;4.03;;;30.10;99.90;;;;;;4067139;29;20144;-64
2023/08/18 05:32:34;;;;;;;6.50;4.07;;;30.40;99.90;;;;;;4077831;29;20044;-64
2023/08/18 05:34:35;;;;;;;5.82;4.68;;;30.70;99.90;;;;;;4076783;29;20040;-63
2023/08/18 05:36:37;;;;;;;4.63;4.18;;;30.60;99.90;;;;;;4073112;29;20381;-65
2023/08/18 05:38:38;;;;;;;5.78;4.70;;;30.50;99.90;;;;;;4071623;29;20098;-66
2023/08/18 05:40:48;;;;;;;4.88;4.15;;;30.20;99.90;;;;;;4078038;29;20028;-65
2023/08/18 05:42:49;;;;;;;7.25;4.68;;;30.10;99.80;;;;;;4079575;29;20044;-63
2023/08/18 05:44:50;;;;;;;4.78;4.32;;;30.50;99.90;;;;;;4072194;29;20036;-65
2023/08/18 05:46:52;;;;;;;4.43;4.03;;;30.30;99.90;;;;;;4066853;29;20040;-66
2023/08/18 05:48:54;;;;;;;7.65;4.40;;;30.50;99.80;;;;;;4067923;29;20915;-66
2023/08/18 05:50:55;;;;;;;5.13;4.35;;;31.00;99.40;;;;;;4066472;29;20040;-65
2023/08/18 05:52:56;;;;;;;4.50;4.10;;;31.30;98.90;;;;;;4067713;29;20028;-62
2023/08/18 05:54:57;;;;;;;7.28;4.07;;;31.60;98.50;;;;;;4066341;29;20115;-61
2023/08/18 05:56:58;;;;;;;8.30;4.32;;;31.70;98.10;;;;;;4067420;29;20108;-62
2023/08/18 05:58:59;;;;;;;7.45;4.43;;;32.10;97.60;;;;;;4066059;29;20072;-62
2023/08/18 06:01:00;;;;;;;6.47;4.53;;;32.10;97.20;;;;;;4067424;29;20104;-62
2023/08/18 06:03:02;;;;;;;6.68;4.40;;;31.70;97.30;;;;;;4066563;29;20036;-62
2023/08/18 06:05:04;;;;;;;5.65;4.20;;;31.80;97.30;;;;;;4067344;29;20040;-62
2023/08/18 06:07:05;;;;;;;7.18;4.40;;;31.90;97.00;;;;;;4066422;29;20040;-63
2023/08/18 06:09:06;;;;;;;8.40;4.05;;;32.00;96.80;;;;;;4067266;29;20068;-62
2023/08/18 06:11:07;;;;;;;5.10;4.68;;;32.20;96.50;;;;;;4065227;29;20040;-63
2023/08/18 06:13:09;;;;;;;5.63;3.97;;;32.30;96.20;;;;;;4066356;29;20044;-63
2023/08/18 06:15:11;;;;;;;6.05;4.10;;;32.30;96.10;;;;;;4066960;29;20091;-63
2023/08/18 06:17:12;;;;;;;7.47;5.07;;;32.70;95.80;;;;;;4066205;29;20100;-63
2023/08/18 06:19:13;;;;;;;5.10;4.65;;;32.40;95.50;;;;;;4067057;29;20043;-63
2023/08/18 06:21:14;;;;;;;6.15;4.43;;;32.00;95.70;;;;;;4064847;29;20067;-65
2023/08/18 06:23:15;;;;;;;11.60;4.35;;;31.80;96.00;;;;;;4067108;29;20080;-63
2023/08/18 06:25:16;;;;;;;6.05;4.38;;;31.70;96.00;;;;;;4066051;29;20450;-63
2023/08/18 06:27:17;;;;;;;7.40;4.78;;;31.80;96.10;;;;;;4067326;29;20107;-61
2023/08/18 06:29:19;;;;;;;10.98;4.72;;;32.00;95.90;;;;;;4065612;29;20108;-64
2023/08/18 06:31:20;;;;;;;9.13;5.53;;;31.70;95.70;;;;;;4067163;29;20028;-62
2023/08/18 06:33:22;;;;;;;9.77;4.82;;;30.90;96.00;;;;;;4066037;29;20044;-63
2023/08/18 06:35:23;;;;;;;7.15;5.15;;;30.40;96.70;;;;;;4066930;29;20044;-63
2023/08/18 06:37:25;;;;;;;7.95;5.75;;;30.30;96.80;;;;;;4066172;29;20048;-62
2023/08/18 06:39:26;;;;;;;7.63;4.70;;;29.80;97.30;;;;;;4067176;29;20072;-63
2023/08/18 06:41:27;;;;;;;8.60;4.80;;;29.40;97.50;;;;;;4065921;29;20445;-61
2023/08/18 06:43:28;;;;;;;7.20;4.93;;;28.90;97.90;;;;;;4066031;29;20107;-61
2023/08/18 06:45:30;;;;;;;9.73;5.00;;;28.50;98.30;;;;;;4066914;29;20036;-62
2023/08/18 06:47:31;;;;;;;7.07;4.53;;;28.30;98.50;;;;;;4065900;29;20116;-63
2023/08/18 06:49:32;;;;;;;10.00;5.20;;;28.20;98.60;;;;;;4066512;29;20544;-63
2023/08/18 06:51:33;;;;;;;14.10;4.97;;;27.80;99.10;;;;;;4065055;29;20496;-63
2023/08/18 06:53:34;;;;;;;8.10;5.43;;;27.80;99.20;;;;;;4066096;29;20028;-63
2023/08/18 06:55:36;;;;;;;7.50;5.50;;;27.90;99.30;;;;;;4065460;29;20509;-62
2023/08/18 06:57:37;;;;;;;10.85;6.45;;;27.70;99.40;;;;;;4066738;29;20036;-63
2023/08/18 06:59:38;;;;;;;7.82;5.05;;;27.40;99.70;;;;;;4065231;29;20394;-61
2023/08/18 07:01:41;;;;;;;7.00;5.32;;;27.50;99.90;;;;;;4066436;29;20095;-62
2023/08/18 07:03:44;;;;;;;13.57;6.20;;;27.70;99.90;;;;;;4065378;29;20068;-61
2023/08/18 07:05:45;;;;;;;13.02;6.20;;;27.70;99.90;;;;;;4066426;29;20080;-61
2023/08/18 07:07:46;;;;;;;8.70;6.22;;;27.50;99.90;;;;;;4065390;29;20044;-63
2023/08/18 07:09:49;;;;;;;13.70;5.88;;;27.60;99.90;;;;;;4066750;29;20378;-62
2023/08/18 07:11:50;;;;;;;12.52;6.15;;;27.80;99.90;;;;;;4065559;29;20381;-62
2023/08/18 07:13:51;;;;;;;12.18;5.82;;;27.90;99.90;;;;;;4065582;29;20036;-62
2023/08/18 07:15:52;;;;;;;12.05;6.07;;;27.70;99.90;;;;;;4065438;29;20044;-62
2023/08/18 07:17:53;;;;;;;6.95;5.32;;;27.70;99.90;;;;;;4065453;29;20099;-61
2023/08/18 07:19:54;;;;;;;8.35;5.55;;;27.90;99.90;;;;;;4066197;29;20071;-64
2023/08/18 07:21:55;;;;;;;9.02;5.38;;;28.00;99.90;;;;;;4065223;29;20107;-61
2023/08/18 07:23:56;;;;;;;8.25;5.68;;;27.90;99.90;;;;;;4066300;29;20056;-62
2023/08/18 07:25:58;;;;;;;8.13;5.50;;;28.10;99.90;;;;;;4065430;29;20085;-62
2023/08/18 07:27:59;;;;;;;7.45;5.03;;;28.40;99.70;;;;;;4066462;29;20107;-62
2023/08/18 07:30:01;;;;;;;8.32;4.63;;;28.70;99.30;;;;;;4065199;29;20036;-63
2023/08/18 07:32:02;;;;;;;7.03;4.95;;;28.60;99.10;;;;;;4066211;29;20103;-61
2023/08/18 07:34:03;;;;;;;5.30;4.85;;;28.30;99.40;;;;;;4065166;29;20087;-62
2023/08/18 07:36:05;;;;;;;7.07;4.68;;;28.00;99.50;;;;;;4066353;29;20028;-63
2023/08/18 07:38:06;;;;;;;6.00;5.07;;;27.90;99.70;;;;;;4065055;29;20119;-63
2023/08/18 07:40:09;;;;;;;7.90;4.82;;;28.10;99.60;;;;;;4066335;29;20446;-62
2023/08/18 07:42:11;;;;;;;7.63;4.30;;;28.20;99.50;;;;;;4065065;29;20044;-61
2023/08/18 07:44:12;;;;;;;5.10;4.38;;;28.20;99.60;;;;;;4065765;29;20024;-67
2023/08/18 07:46:13;;;;;;;5.03;4.45;;;28.50;99.40;;;;;;4065016;29;20044;-66
2023/08/18 07:48:14;;;;;;;8.10;4.45;;;28.40;99.30;;;;;;4065493;29;20104;-64
2023/08/18 07:50:15;;;;;;;7.45;4.90;;;28.60;99.30;;;;;;4063910;29;20036;-62
2023/08/18 07:52:17;;;;;;;5.50;4.28;;;29.10;99.10;;;;;;4065090;29;20032;-63
2023/08/18 07:54:18;;;;;;;5.55;4.38;;;29.60;98.60;;;;;;4065436;29;20040;-61
2023/08/18 07:56:19;;;;;;;7.00;4.63;;;29.90;98.20;;;;;;4064681;29;20576;-61
2023/08/18 07:58:20;;;;;;;5.47;4.80;;;29.90;97.90;;;;;;4065443;29;20481;-63
2023/08/18 08:00:21;;;;;;;9.23;3.72;;;29.70;98.00;;;;;;4064505;29;20041;-61
2023/08/18 08:02:22;;;;;;;7.38;4.93;;;29.80;98.00;;;;;;4065677;29;20092;-62
2023/08/18 08:04:24;;;;;;;6.82;4.40;;;30.00;97.80;;;;;;4064613;29;20092;-64
2023/08/18 08:06:25;;;;;;;7.47;4.78;;;29.90;97.70;;;;;;4064918;29;20024;-63
2023/08/18 08:08:26;;;;;;;7.18;4.55;;;29.70;97.70;;;;;;4063508;29;20497;-62
2023/08/18 08:10:27;;;;;;;8.15;4.20;;;29.40;98.00;;;;;;4066143;29;20036;-63
2023/08/18 08:12:30;;;;;;;6.95;4.43;;;29.10;98.20;;;;;;4064547;29;20036;-64
2023/08/18 08:14:31;;;;;;;8.55;4.95;;;29.00;98.30;;;;;;4065399;29;20071;-65
2023/08/18 08:16:35;;;;;;;6.78;4.07;;;29.00;98.40;;;;;;4064477;29;20063;-61
2023/08/18 08:18:36;;;;;;;5.80;4.00;;;29.20;98.20;;;;;;4065177;29;20040;-63
2023/08/18 08:20:37;;;;;;;7.03;4.10;;;29.30;98.10;;;;;;4064560;29;20057;-65
2023/08/18 08:22:38;;;;;;;3.97;3.65;;;29.50;97.80;;;;;;4064631;29;20104;-66
2023/08/18 08:24:39;;;;;;;5.22;3.50;;;29.70;97.50;;;;;;4064664;29;20143;-64
2023/08/18 08:26:41;;;;;;;4.43;3.25;;;29.90;97.20;;;;;;4064451;29;20047;-65
2023/08/18 08:28:44;;;;;;;4.72;3.30;;;29.80;97.00;;;;;;4065109;29;20032;-66
2023/08/18 08:30:45;;;;;;;6.13;3.05;;;29.50;96.70;;;;;;4064131;29;20410;-63
2023/08/18 08:32:46;;;;;;;6.55;2.70;;;29.30;96.70;;;;;;4065176;29;20053;-64
2023/08/18 08:34:50;;;;;;;5.55;2.65;;;29.20;96.50;;;;;;4063624;29;20044;-63
2023/08/18 08:36:53;;;;;;;5.45;3.03;;;29.20;95.90;;;;;;4065182;29;20063;-64
2023/08/18 08:38:54;;;;;;;7.43;2.97;;;29.20;96.00;;;;;;4063844;29;20099;-65
2023/08/18 08:40:59;;;;;;;3.95;2.85;;;29.40;96.00;;;;;;4065489;29;20489;-65
2023/08/18 08:43:00;;;;;;;5.25;3.53;;;29.60;95.80;;;;;;4064184;29;20391;-63
2023/08/18 08:45:02;;;;;;;6.57;3.35;;;29.50;96.00;;;;;;4065026;29;20111;-65
2023/08/18 08:47:03;;;;;;;7.97;3.30;;;29.60;96.10;;;;;;4064045;29;20103;-62
2023/08/18 08:49:05;;;;;;;4.95;2.92;;;29.60;95.90;;;;;;4064838;29;20103;-65
2023/08/18 08:51:10;;;;;;;6.63;3.60;;;29.50;96.00;;;;;;4064121;29;20025;-62
2023/08/18 08:53:19;;;;;;;3.55;2.50;;;29.60;95.90;;;;;;4064082;29;20044;-62
2023/08/18 08:55:24;;;;;;;2.88;2.60;;;29.80;95.10;;;;;;4064068;29;20749;-65
2023/08/18 08:57:26;;;;;;;4.32;2.30;;;30.00;94.70;;;;;;4064581;29;20087;-61
2023/08/18 08:59:27;;;;;;;6.53;3.00;;;30.00;94.20;;;;;;4064015;29;20048;-66
2023/08/18 09:01:28;;;;;;;2.40;2.20;;;30.00;94.10;;;;;;4064146;29;20032;-63
2023/08/18 09:03:29;;;;;;;3.47;2.63;;;30.00;93.90;;;;;;4062987;29;20051;-63
2023/08/18 09:05:32;;;;;;;2.65;2.28;;;30.00;93.70;;;;;;4063600;29;20044;-64
2023/08/18 09:07:33;;;;;;;4.00;2.50;;;30.10;93.40;;;;;;4064519;29;20067;-61
2023/08/18 09:09:34;;;;;;;4.63;2.50;;;30.20;93.10;;;;;;4063665;29;20052;-64
2023/08/18 09:11:42;;;;;;;5.07;3.20;;;30.20;93.10;;;;;;4065103;29;20104;-65
2023/08/18 09:13:43;;;;;;;3.10;2.05;;;30.20;93.10;;;;;;4063413;29;20099;-64
2023/08/18 09:15:44;;;;;;;5.95;2.63;;;30.10;93.00;;;;;;4064526;29;20035;-62
2023/08/18 09:17:46;;;;;;;7.03;3.00;;;30.20;93.00;;;;;;4063338;29;20036;-63
2023/08/18 09:19:49;;;;;;;3.35;2.50;;;30.10;92.90;;;;;;4064722;29;20103;-63
2023/08/18 09:21:50;;;;;;;8.65;2.78;;;30.30;93.10;;;;;;4063295;29;20040;-64
2023/08/18 09:23:57;;;;;;;2.28;2.05;;;30.30;92.70;;;;;;4064247;29;20088;-63
2023/08/18 09:25:58;;;;;;;2.53;2.30;;;30.30;92.20;;;;;;4063072;29;20040;-62
2023/08/18 09:28:00;;;;;;;11.05;2.53;;;30.20;92.50;;;;;;4064759;29;20032;-65
2023/08/18 09:30:02;;;;;;;3.78;2.63;;;29.90;92.90;;;;;;4063410;29;20063;-66
2023/08/18 09:32:03;;;;;;;3.13;2.80;;;29.60;93.20;;;;;;4063989;29;20091;-66
2023/08/18 09:34:04;;;;;;;2.72;2.40;;;29.60;93.40;;;;;;4063502;29;20044;-67
2023/08/18 09:36:06;;;;;;;2.97;2.60;;;29.70;93.40;;;;;;4063670;29;20076;-67
2023/08/18 09:38:13;;;;;;;3.20;2.72;;;29.70;93.40;;;;;;4064187;29;20115;-62
2023/08/18 09:40:14;;;;;;;4.22;3.20;;;29.60;93.40;;;;;;4064240;29;20092;-65
2023/08/18 09:42:16;;;;;;;4.30;2.45;;;29.50;93.60;;;;;;4064398;29;20036;-65
2023/08/18 09:44:18;;;;;;;7.03;2.85;;;29.70;93.60;;;;;;4063125;29;20025;-64
2023/08/18 09:46:21;;;;;;;6.40;2.90;;;29.60;93.30;;;;;;4064480;29;20366;-63
2023/08/18 09:48:26;;;;;;;5.50;3.60;;;29.70;93.30;;;;;;4063546;29;20036;-63
2023/08/18 09:50:30;;;;;;;3.67;2.92;;;29.90;93.30;;;;;;4064684;29;20095;-63
2023/08/18 09:52:34;;;;;;;4.75;2.75;;;30.00;92.90;;;;;;4063387;29;20111;-63
2023/08/18 09:54:44;;;;;;;5.88;3.10;;;30.10;92.90;;;;;;4064582;29;20068;-62
2023/08/18 09:56:49;;;;;;;3.15;2.85;;;30.20;92.80;;;;;;4063320;29;20040;-61
2023/08/18 09:59:20;;;;;;;4.10;2.78;;;30.40;92.90;;;;;;4064163;29;20481;-62
2023/08/18 10:01:23;;;;;;;3.30;2.40;;;30.70;92.70;;;;;;4059600;29;20410;-62
2023/08/18 10:03:28;;;;;;;5.78;2.95;;;30.70;92.90;;;;;;4064373;29;20422;-61
2023/08/18 10:05:32;;;;;;;6.82;2.80;;;31.00;92.80;;;;;;4063156;29;20040;-63
2023/08/18 10:07:34;;;;;;;6.25;2.88;;;31.00;92.60;;;;;;4064403;29;20115;-62
2023/08/18 10:09:36;;;;;;;5.93;3.22;;;30.90;92.50;;;;;;4063266;29;20037;-64
2023/08/18 10:11:38;;;;;;;3.20;2.90;;;30.80;92.50;;;;;;4064858;29;20473;-63
2023/08/18 10:13:39;;;;;;;5.28;2.67;;;30.80;92.50;;;;;;4062971;29;20100;-62
2023/08/18 10:15:42;;;;;;;2.65;2.45;;;30.70;92.30;;;;;;4063864;29;20048;-63
2023/08/18 10:17:43;;;;;;;3.17;2.75;;;30.50;92.50;;;;;;4062781;29;20105;-63
2023/08/18 10:19:50;;;;;;;4.05;2.97;;;30.40;92.50;;;;;;4064070;29;20032;-63
2023/08/18 10:21:51;;;;;;;4.40;2.67;;;30.40;92.30;;;;;;4062550;29;20040;-63
2023/08/18 10:23:53;;;;;;;4.50;2.67;;;30.30;92.40;;;;;;4062482;29;20040;-63
2023/08/18 10:25:54;;;;;;;5.78;2.85;;;30.30;92.80;;;;;;4063269;29;20055;-62
2023/08/18 10:27:56;;;;;;;5.25;2.67;;;30.30;92.50;;;;;;4063482;29;20103;-62
2023/08/18 10:30:17;;;;;;;3.63;3.17;;;30.30;92.60;;;;;;4065990;29;20020;-62
2023/08/18 10:32:19;;;;;;;7.93;2.58;;;30.30;92.30;;;;;;4059644;29;20035;-65
2023/08/18 10:34:21;;;;;;;6.45;3.10;;;30.40;92.50;;;;;;4066442;29;20419;-63